Terminal Aerodrome Forecast
Issued by NWS Albuquerque, NM

Home | Current Version | Previous Version | Text Only | Print | Product List | Glossary On
Versions: 1 2 3 4 5 6 7 8 9 10 11 12 13 14 15 16
816
FTUS45 KABQ 251237 AAA
TAFABQ
TAF AMD
KABQ 251237Z 2513/2612 18006KT P6SM BKN100
     FM251800 22009KT P6SM SCT070
     FM252100 27012G20KT P6SM VCTS BKN070CB
     FM260000 20009KT P6SM VCSH BKN070
     FM260400 17006KT P6SM BKN100=

USA.gov is the U.S. government's official web portal to all federal, state and local government web resources and services.